createdAt,value
2019-06-10T00:01:02.205Z,17.2
2019-06-10T00:02:03.466Z,17.1
2019-06-10T00:03:04.136Z,17.2
2019-06-10T00:04:06.919Z,17.3
2019-06-10T00:05:07.153Z,17.2
2019-06-10T00:06:07.164Z,17.1
2019-06-10T00:07:08.617Z,17.1
2019-06-10T00:08:11.896Z,17.1
2019-06-10T00:09:11.766Z,17.1
2019-06-10T00:10:12.825Z,17.1
2019-06-10T00:11:14.227Z,17.1
2019-06-10T00:12:15.611Z,17.2
2019-06-10T00:13:16.966Z,17.2
2019-06-10T00:14:18.318Z,17.2
2019-06-10T00:15:21.225Z,17.1
2019-06-10T00:16:21.068Z,17.2
2019-06-10T00:17:22.469Z,17.2
2019-06-10T00:18:38.381Z,17.1
2019-06-10T00:19:25.300Z,17.2
2019-06-10T00:20:26.699Z,17.2
2019-06-10T00:21:28.103Z,17.2
2019-06-10T00:22:31.409Z,17.1
2019-06-10T00:23:32.063Z,17.1
2019-06-10T00:24:32.347Z,17.1
2019-06-10T00:25:33.800Z,17.2
2019-06-10T00:26:35.193Z,17.1
2019-06-10T00:27:36.859Z,17.1
2019-06-10T00:28:40.535Z,17.1
2019-06-10T00:29:40.849Z,17.1
2019-06-10T00:30:41.599Z,17.1
2019-06-10T00:31:42.695Z,17.1
2019-06-10T00:32:44.159Z,17.1
2019-06-10T00:33:45.580Z,17.1
2019-06-10T00:34:46.995Z,17.1
2019-06-10T00:35:48.394Z,17.1
2019-06-10T00:36:50.869Z,17.2
2019-06-10T00:37:51.340Z,17.1
2019-06-10T00:38:52.733Z,17.1
2019-06-10T00:39:54.148Z,17.1
2019-06-10T00:40:55.969Z,17.0
2019-06-10T00:41:57.714Z,17.0
2019-06-10T00:43:00.079Z,17.0
2019-06-10T00:44:02.433Z,17.0
2019-06-10T00:45:05.621Z,17.0
2019-06-10T00:46:05.912Z,17.0
2019-06-10T00:47:08.663Z,16.9
2019-06-10T00:48:21.386Z,17.0
2019-06-10T00:49:12.607Z,17.0
2019-06-10T00:50:14.323Z,17.0
2019-06-10T00:51:13.241Z,17.1
2019-06-10T00:52:14.753Z,17.0
2019-06-10T00:53:16.660Z,17.1
2019-06-10T00:54:18.829Z,17.1
2019-06-10T00:55:21.321Z,17.1
2019-06-10T00:56:23.675Z,17.0
2019-06-10T00:57:25.798Z,17.0
2019-06-10T00:58:27.764Z,17.1
2019-06-10T00:59:31.081Z,17.1
2019-06-10T01:00:31.904Z,17.0
2019-06-10T01:01:41.628Z,17.0
2019-06-10T01:02:42.302Z,17.0
2019-06-10T01:03:44.143Z,17.1
2019-06-10T01:04:46.798Z,17.0
2019-06-10T01:05:50.695Z,17.0
2019-06-10T01:06:51.398Z,17.0
2019-06-10T01:07:52.333Z,17.1
2019-06-10T01:08:54.455Z,17.0
2019-06-10T01:09:56.212Z,17.0
2019-06-10T01:10:57.865Z,16.9
2019-06-10T01:12:01.037Z,17.0
2019-06-10T01:13:01.047Z,16.9
2019-06-10T01:14:03.089Z,17.0
2019-06-10T01:15:05.245Z,17.0
2019-06-10T01:16:05.886Z,17.0
2019-06-10T01:17:07.685Z,17.0
2019-06-10T01:18:28.788Z,16.9
2019-06-10T01:19:12.804Z,16.9
2019-06-10T01:20:14.379Z,17.0
2019-06-10T01:21:15.465Z,16.9
2019-06-10T01:22:16.956Z,16.9
2019-06-10T01:23:17.612Z,16.9
2019-06-10T01:24:18.955Z,16.9
2019-06-10T01:25:21.667Z,16.8
2019-06-10T01:26:22.518Z,16.9
2019-06-10T01:27:24.302Z,16.8
2019-06-10T01:28:26.026Z,16.8
2019-06-10T01:29:27.616Z,16.9
2019-06-10T01:30:31.105Z,16.9
2019-06-10T01:31:31.782Z,16.9
2019-06-10T01:32:32.779Z,16.9
2019-06-10T01:33:35.017Z,16.9
2019-06-10T01:34:36.605Z,16.9
2019-06-10T01:35:38.252Z,16.9
2019-06-10T01:36:40.594Z,16.9
2019-06-10T01:37:41.721Z,16.8
2019-06-10T01:38:43.464Z,16.8
2019-06-10T01:39:45.686Z,16.9
2019-06-10T01:40:47.334Z,16.9
2019-06-10T01:41:51.059Z,16.9
2019-06-10T01:42:50.789Z,16.9
2019-06-10T01:43:52.365Z,16.9
2019-06-10T01:44:54.035Z,16.9
2019-06-10T01:45:55.624Z,16.9
2019-06-10T01:46:57.046Z,16.9
2019-06-10T01:48:01.318Z,16.9
2019-06-10T01:49:00.864Z,16.9
2019-06-10T01:50:02.395Z,16.9
2019-06-10T01:51:04.011Z,16.8
2019-06-10T01:52:05.594Z,16.8
2019-06-10T01:53:07.390Z,16.7
2019-06-10T01:54:09.995Z,16.9
2019-06-10T01:55:12.296Z,16.8
2019-06-10T01:56:13.986Z,16.8
2019-06-10T01:57:15.449Z,16.8
2019-06-10T01:58:16.761Z,16.8
2019-06-10T01:59:18.566Z,16.8
2019-06-10T02:00:25.118Z,16.8
2019-06-10T02:01:23.262Z,16.8
2019-06-10T02:02:23.870Z,16.8
2019-06-10T02:03:24.662Z,16.7
2019-06-10T02:04:26.548Z,16.7
2019-06-10T02:05:28.162Z,16.7
2019-06-10T02:06:31.489Z,16.7
2019-06-10T02:07:31.988Z,16.7
2019-06-10T02:08:32.656Z,16.7
2019-06-10T02:09:34.071Z,16.8
2019-06-10T02:10:35.596Z,16.7
2019-06-10T02:11:37.050Z,16.7
2019-06-10T02:12:38.546Z,16.8
2019-06-10T02:13:40.926Z,16.8
2019-06-10T02:14:41.626Z,16.8
2019-06-10T02:15:42.876Z,16.7
2019-06-10T02:16:44.382Z,16.7
2019-06-10T02:17:45.913Z,16.8
2019-06-10T02:18:59.886Z,16.7
2019-06-10T02:19:50.732Z,16.7
2019-06-10T02:20:51.430Z,16.7
2019-06-10T02:21:51.776Z,16.8
2019-06-10T02:22:53.195Z,16.7
2019-06-10T02:23:54.736Z,16.7
2019-06-10T02:24:56.258Z,16.7
2019-06-10T02:25:57.752Z,16.7
2019-06-10T02:27:00.922Z,16.7
2019-06-10T02:28:01.057Z,16.7
2019-06-10T02:29:02.451Z,16.7
2019-06-10T02:30:13.589Z,16.8
2019-06-10T02:31:05.267Z,16.7
2019-06-10T02:32:06.748Z,16.7
2019-06-10T02:33:11.957Z,16.7
2019-06-10T02:34:12.419Z,16.7
2019-06-10T02:35:23.047Z,16.7
2019-06-10T02:36:15.905Z,16.8
2019-06-10T02:37:17.312Z,16.7
2019-06-10T02:38:19.904Z,16.7
2019-06-10T02:39:20.158Z,16.8
2019-06-10T02:40:22.623Z,16.8
2019-06-10T02:41:24.106Z,16.8
2019-06-10T02:42:28.873Z,16.8
2019-06-10T02:43:31.705Z,16.8
2019-06-10T02:44:32.541Z,16.8
2019-06-10T02:45:32.388Z,16.8
2019-06-10T02:46:31.245Z,16.9
2019-06-10T02:47:36.224Z,16.8
2019-06-10T02:48:34.530Z,16.8
2019-06-10T02:49:51.643Z,16.9
2019-06-10T02:50:36.445Z,16.9
2019-06-10T02:51:35.911Z,16.9
2019-06-10T02:52:38.578Z,16.9
2019-06-10T02:53:38.684Z,16.9
2019-06-10T02:54:43.697Z,16.8
2019-06-10T02:55:43.461Z,16.8
2019-06-10T02:56:44.193Z,16.8
2019-06-10T02:57:45.326Z,16.7
2019-06-10T02:58:46.553Z,16.8
2019-06-10T02:59:48.081Z,16.8
2019-06-10T03:00:49.608Z,16.7
2019-06-10T03:01:53.439Z,16.8
2019-06-10T03:02:53.090Z,16.7
2019-06-10T03:03:54.637Z,16.8
2019-06-10T03:04:56.398Z,16.8
2019-06-10T03:05:58.142Z,16.7
2019-06-10T03:06:59.586Z,16.7
2019-06-10T03:08:03.666Z,16.7
2019-06-10T03:09:03.754Z,16.7
2019-06-10T03:10:04.624Z,16.7
2019-06-10T03:11:05.922Z,16.7
2019-06-10T03:12:07.362Z,16.8
2019-06-10T03:13:08.997Z,16.8
2019-06-10T03:14:13.004Z,16.8
2019-06-10T03:15:12.580Z,16.8
2019-06-10T03:16:13.918Z,16.7
2019-06-10T03:17:15.697Z,16.7
2019-06-10T03:18:17.793Z,16.7
2019-06-10T03:19:34.389Z,16.6
2019-06-10T03:20:20.017Z,16.6
2019-06-10T03:21:23.137Z,16.7
2019-06-10T03:22:24.005Z,16.7
2019-06-10T03:23:26.426Z,16.7
2019-06-10T03:24:25.658Z,16.7
2019-06-10T03:25:27.757Z,16.7
2019-06-10T03:26:28.582Z,16.7
2019-06-10T03:27:32.706Z,16.8
2019-06-10T03:28:32.101Z,16.7
2019-06-10T03:29:32.888Z,16.6
2019-06-10T03:30:46.656Z,16.7
2019-06-10T03:31:41.431Z,16.7
2019-06-10T03:32:42.619Z,16.7
2019-06-10T03:33:42.071Z,16.7
2019-06-10T03:34:46.045Z,16.7
2019-06-10T03:35:42.354Z,16.8
2019-06-10T03:36:42.935Z,16.7
2019-06-10T03:37:44.154Z,16.8
2019-06-10T03:38:45.619Z,16.8
2019-06-10T03:39:47.061Z,16.8
2019-06-10T03:40:48.603Z,16.7
2019-06-10T03:41:50.062Z,16.7
2019-06-10T03:42:52.032Z,16.6
2019-06-10T03:43:53.107Z,16.7
2019-06-10T03:44:54.265Z,16.7
2019-06-10T03:45:55.719Z,16.7
2019-06-10T03:46:57.147Z,16.8
2019-06-10T03:47:58.542Z,16.7
2019-06-10T03:48:59.936Z,16.6
2019-06-10T03:50:03.047Z,16.8
2019-06-10T03:51:03.366Z,16.7
2019-06-10T03:52:04.038Z,16.7
2019-06-10T03:53:05.440Z,16.7
2019-06-10T03:54:06.828Z,16.7
2019-06-10T03:55:08.224Z,16.7
2019-06-10T03:56:09.622Z,16.7
2019-06-10T03:57:12.050Z,16.8
2019-06-10T03:58:12.567Z,16.7
2019-06-10T03:59:13.733Z,16.7
2019-06-10T04:00:15.134Z,16.7
2019-06-10T04:01:17.319Z,16.8
2019-06-10T04:02:17.907Z,16.7
2019-06-10T04:03:19.357Z,16.7
2019-06-10T04:04:22.474Z,16.7
2019-06-10T04:05:23.853Z,16.6
2019-06-10T04:06:25.571Z,16.7
2019-06-10T04:07:28.260Z,16.7
2019-06-10T04:08:26.606Z,16.7
2019-06-10T04:09:28.805Z,16.6
2019-06-10T04:10:29.608Z,16.7
2019-06-10T04:11:32.310Z,16.7
2019-06-10T04:12:32.759Z,16.6
2019-06-10T04:13:33.719Z,16.6
2019-06-10T04:14:34.498Z,16.6
2019-06-10T04:15:35.908Z,16.6
2019-06-10T04:16:37.357Z,16.6
2019-06-10T04:17:38.744Z,16.6
2019-06-10T04:18:40.154Z,16.7
2019-06-10T04:19:42.129Z,16.6
2019-06-10T04:20:43.004Z,16.6
2019-06-10T04:21:44.241Z,16.5
2019-06-10T04:22:45.594Z,16.6
2019-06-10T04:23:46.993Z,16.6
2019-06-10T04:24:48.363Z,16.5
2019-06-10T04:25:49.738Z,16.5
2019-06-10T04:26:52.157Z,16.6
2019-06-10T04:27:52.550Z,16.5
2019-06-10T04:28:53.777Z,16.5
2019-06-10T04:29:55.148Z,16.5
2019-06-10T04:30:56.529Z,16.6
2019-06-10T04:31:57.902Z,16.5
2019-06-10T04:32:59.278Z,16.5
2019-06-10T04:34:02.929Z,16.5
2019-06-10T04:35:02.330Z,16.5
2019-06-10T04:36:03.410Z,16.5
2019-06-10T04:37:04.784Z,16.5
2019-06-10T04:38:06.149Z,16.5
2019-06-10T04:39:07.509Z,16.6
2019-06-10T04:40:08.877Z,16.5
2019-06-10T04:41:12.392Z,16.5
2019-06-10T04:42:12.966Z,16.5
2019-06-10T04:43:12.902Z,16.5
2019-06-10T04:44:14.270Z,16.5
2019-06-10T04:45:15.634Z,16.5
2019-06-10T04:46:16.999Z,16.5
2019-06-10T04:47:18.526Z,16.5
2019-06-10T04:48:21.227Z,16.5
2019-06-10T04:49:23.460Z,16.5
2019-06-10T04:50:33.345Z,16.5
2019-06-10T04:51:25.370Z,16.5
2019-06-10T04:52:26.132Z,16.5
2019-06-10T04:53:27.680Z,16.5
2019-06-10T04:54:28.660Z,16.5
2019-06-10T04:55:29.298Z,16.5
2019-06-10T04:56:31.219Z,16.5
2019-06-10T04:57:32.711Z,16.6
2019-06-10T04:58:33.323Z,16.6
2019-06-10T04:59:34.360Z,16.6
2019-06-10T05:00:35.742Z,16.6
2019-06-10T05:01:37.234Z,16.6
2019-06-10T05:02:38.498Z,16.7
2019-06-10T05:03:39.859Z,16.7
2019-06-10T05:04:42.606Z,16.8
2019-06-10T05:05:43.096Z,16.7
2019-06-10T05:06:43.890Z,16.7
2019-06-10T05:07:45.263Z,16.7
2019-06-10T05:08:46.620Z,16.7
2019-06-10T05:09:47.985Z,16.7
2019-06-10T05:10:49.355Z,16.7
2019-06-10T05:11:52.237Z,16.8
2019-06-10T05:12:52.602Z,16.8
2019-06-10T05:13:53.507Z,16.9
2019-06-10T05:14:54.719Z,16.9
2019-06-10T05:15:56.079Z,16.9
2019-06-10T05:16:57.438Z,17.0
2019-06-10T05:17:58.818Z,16.9
2019-06-10T05:19:00.185Z,16.9
2019-06-10T05:20:02.604Z,17.0
2019-06-10T05:21:03.165Z,17.0
2019-06-10T05:22:04.209Z,17.0
2019-06-10T05:23:05.580Z,17.2
2019-06-10T05:24:06.953Z,17.2
2019-06-10T05:25:08.325Z,17.2
2019-06-10T05:26:09.690Z,17.3
2019-06-10T05:27:12.539Z,17.2
2019-06-10T05:28:12.410Z,17.3
2019-06-10T05:29:13.869Z,17.3
2019-06-10T05:30:15.186Z,17.4
2019-06-10T05:31:16.579Z,17.4
2019-06-10T05:32:17.950Z,17.4
2019-06-10T05:33:20.774Z,17.4
2019-06-10T05:34:23.237Z,17.4
2019-06-10T05:35:24.341Z,17.5
2019-06-10T05:36:25.663Z,17.5
2019-06-10T05:37:26.327Z,17.5
2019-06-10T05:38:27.214Z,17.5
2019-06-10T05:39:28.716Z,17.5
2019-06-10T05:40:29.363Z,17.5
2019-06-10T05:41:31.561Z,17.6
2019-06-10T05:42:34.024Z,17.6
2019-06-10T05:43:34.264Z,17.6
2019-06-10T05:44:34.644Z,17.6
2019-06-10T05:45:35.378Z,17.5
2019-06-10T05:46:36.744Z,17.6
2019-06-10T05:47:38.114Z,17.6
2019-06-10T05:48:39.476Z,17.7
2019-06-10T05:49:42.880Z,17.6
2019-06-10T05:50:42.806Z,17.5
2019-06-10T05:51:43.508Z,17.6
2019-06-10T05:52:44.889Z,17.6
2019-06-10T05:53:46.549Z,17.5
2019-06-10T05:54:47.593Z,17.5
2019-06-10T05:55:48.989Z,17.5
2019-06-10T05:56:52.060Z,17.5
2019-06-10T05:57:53.241Z,17.4
2019-06-10T05:58:53.125Z,17.5
2019-06-10T05:59:54.509Z,17.5
2019-06-10T06:00:55.926Z,17.5
2019-06-10T06:01:57.276Z,17.5
2019-06-10T06:02:58.677Z,17.5
2019-06-10T06:04:00.125Z,17.5
2019-06-10T06:05:02.605Z,17.5
2019-06-10T06:06:03.211Z,17.5
2019-06-10T06:07:04.327Z,17.5
2019-06-10T06:08:08.551Z,17.4
2019-06-10T06:09:07.161Z,17.4
2019-06-10T06:10:08.659Z,17.5
2019-06-10T06:11:12.407Z,17.4
2019-06-10T06:12:14.074Z,17.5
2019-06-10T06:13:12.900Z,17.5
2019-06-10T06:14:14.364Z,17.4
2019-06-10T06:15:15.730Z,17.5
2019-06-10T06:16:17.097Z,17.5
2019-06-10T06:17:18.459Z,17.6
2019-06-10T06:18:19.830Z,17.5
2019-06-10T06:19:22.991Z,17.5
2019-06-10T06:20:23.508Z,17.5
2019-06-10T06:21:29.556Z,17.5
2019-06-10T06:22:25.329Z,17.5
2019-06-10T06:23:26.906Z,17.6
2019-06-10T06:24:27.978Z,17.5
2019-06-10T06:25:30.548Z,17.6
2019-06-10T06:26:35.948Z,17.6
2019-06-10T06:27:33.849Z,17.6
2019-06-10T06:28:35.608Z,17.7
2019-06-10T06:29:36.597Z,17.6
2019-06-10T06:30:37.622Z,17.6
2019-06-10T06:31:38.138Z,17.7
2019-06-10T06:32:39.556Z,17.7
2019-06-10T06:33:42.981Z,17.7
2019-06-10T06:34:43.147Z,17.8
2019-06-10T06:35:46.593Z,17.8
2019-06-10T06:36:46.082Z,17.9
2019-06-10T06:37:48.020Z,17.9
2019-06-10T06:38:49.910Z,18.0
2019-06-10T06:39:52.323Z,18.0
2019-06-10T06:40:53.683Z,18.0
2019-06-10T06:41:54.656Z,18.1
2019-06-10T06:42:56.285Z,18.2
2019-06-10T06:43:57.810Z,18.4
2019-06-10T06:44:59.314Z,18.5
2019-06-10T06:46:02.444Z,18.6
2019-06-10T06:47:02.874Z,18.8
2019-06-10T06:48:04.671Z,18.9
2019-06-10T06:49:06.467Z,19.0
2019-06-10T06:50:08.624Z,19.0
2019-06-10T06:51:12.714Z,19.1
2019-06-10T06:52:12.866Z,19.1
2019-06-10T06:53:24.576Z,19.3
2019-06-10T06:54:15.341Z,19.5
2019-06-10T06:55:16.884Z,19.6
2019-06-10T06:56:18.536Z,19.6
2019-06-10T06:57:22.234Z,19.6
2019-06-10T06:58:23.188Z,19.6
2019-06-10T06:59:24.016Z,19.6
2019-06-10T07:00:45.077Z,19.6
2019-06-10T07:01:27.275Z,19.6
2019-06-10T07:02:29.520Z,19.6
2019-06-10T07:03:30.352Z,19.6
2019-06-10T07:04:33.869Z,19.6
2019-06-10T07:05:35.540Z,19.5
2019-06-10T07:06:35.672Z,19.4
2019-06-10T07:07:37.108Z,19.4
2019-06-10T07:08:39.269Z,19.3
2019-06-10T07:09:40.616Z,19.1
2019-06-10T07:10:41.417Z,19.1
2019-06-10T07:11:44.945Z,19.0
2019-06-10T07:12:44.094Z,18.9
2019-06-10T07:13:45.893Z,18.9
2019-06-10T07:14:46.785Z,18.9
2019-06-10T07:15:48.356Z,18.8
2019-06-10T07:16:50.025Z,18.9
2019-06-10T07:17:52.650Z,18.9
2019-06-10T07:18:53.897Z,18.7
2019-06-10T07:19:57.411Z,18.8
2019-06-10T07:20:56.126Z,18.7
2019-06-10T07:22:08.644Z,18.7
2019-06-10T07:22:59.190Z,18.7
2019-06-10T07:24:03.080Z,18.7
2019-06-10T07:25:06.347Z,18.6
2019-06-10T07:26:03.766Z,18.5
2019-06-10T07:27:05.281Z,18.5
2019-06-10T07:28:06.892Z,18.5
2019-06-10T07:29:08.413Z,18.4
2019-06-10T07:30:12.506Z,18.4
2019-06-10T07:31:20.863Z,18.3
2019-06-10T07:32:12.742Z,18.4
2019-06-10T07:33:14.256Z,18.3
2019-06-10T07:34:15.701Z,18.4
2019-06-10T07:35:17.187Z,18.4
2019-06-10T07:36:18.641Z,18.3
2019-06-10T07:37:20.106Z,18.3
2019-06-10T07:38:23.077Z,18.2
2019-06-10T07:39:22.982Z,18.2
2019-06-10T07:40:24.424Z,18.3
2019-06-10T07:41:25.923Z,18.3
2019-06-10T07:42:27.426Z,18.3
2019-06-10T07:43:28.927Z,18.3
2019-06-10T07:44:30.380Z,18.2
2019-06-10T07:45:33.777Z,18.2
2019-06-10T07:46:34.473Z,18.3
2019-06-10T07:47:35.311Z,18.1
2019-06-10T07:48:37.202Z,18.2
2019-06-10T07:49:39.294Z,18.1
2019-06-10T07:50:42.318Z,18.0
2019-06-10T07:51:44.324Z,18.0
2019-06-10T07:52:46.464Z,18.0
2019-06-10T07:53:46.615Z,18.1
2019-06-10T07:54:46.764Z,18.0
2019-06-10T07:55:48.408Z,18.0
2019-06-10T07:56:50.675Z,18.0
2019-06-10T07:57:53.114Z,18.1
2019-06-10T07:58:54.017Z,18.1
2019-06-10T07:59:55.776Z,17.9
2019-06-10T08:00:57.274Z,18.0
2019-06-10T08:01:59.011Z,17.9
2019-06-10T08:03:02.309Z,17.9
2019-06-10T08:04:03.113Z,17.9
2019-06-10T08:05:03.897Z,18.0
2019-06-10T08:06:05.386Z,17.8
2019-06-10T08:07:06.966Z,17.8
2019-06-10T08:08:08.491Z,17.9
2019-06-10T08:09:12.470Z,17.8
2019-06-10T08:10:13.104Z,17.8
2019-06-10T08:11:13.652Z,17.9
2019-06-10T08:12:14.600Z,17.9
2019-06-10T08:13:16.112Z,18.0
2019-06-10T08:14:17.691Z,18.0
2019-06-10T08:15:19.247Z,18.0
2019-06-10T08:16:23.379Z,18.0
2019-06-10T08:17:22.440Z,18.0
2019-06-10T08:18:23.687Z,18.0
2019-06-10T08:19:34.525Z,18.0
2019-06-10T08:20:26.931Z,18.0
2019-06-10T08:21:28.487Z,18.1
2019-06-10T08:22:33.612Z,18.0
2019-06-10T08:23:32.832Z,18.1
2019-06-10T08:24:33.067Z,18.0
2019-06-10T08:25:34.427Z,18.1
2019-06-10T08:26:35.918Z,18.0
2019-06-10T08:27:38.564Z,18.0
2019-06-10T08:28:39.629Z,18.0
2019-06-10T08:29:41.656Z,17.9
2019-06-10T08:30:42.960Z,17.9
2019-06-10T08:31:46.533Z,17.9
2019-06-10T08:32:46.853Z,17.9
2019-06-10T08:33:47.387Z,17.8
2019-06-10T08:34:48.116Z,17.9
2019-06-10T08:35:57.402Z,17.8
2019-06-10T08:36:50.828Z,17.9
2019-06-10T08:37:52.949Z,17.9
2019-06-10T08:38:53.142Z,17.9
2019-06-10T08:39:54.547Z,17.9
2019-06-10T08:40:56.034Z,17.9
2019-06-10T08:41:57.436Z,17.9
2019-06-10T08:42:58.856Z,17.9
2019-06-10T08:44:02.115Z,17.9
2019-06-10T08:45:03.434Z,18.0
2019-06-10T08:46:03.106Z,17.9
2019-06-10T08:47:04.511Z,17.9
2019-06-10T08:48:05.922Z,18.0
2019-06-10T08:49:07.358Z,18.1
2019-06-10T08:50:08.752Z,18.0
2019-06-10T08:51:12.326Z,18.0
2019-06-10T08:52:12.841Z,18.0
2019-06-10T08:53:15.507Z,18.1
2019-06-10T08:54:14.273Z,18.1
2019-06-10T08:55:15.702Z,18.2
2019-06-10T08:56:17.091Z,18.2
2019-06-10T08:57:18.507Z,18.3
2019-06-10T08:58:22.362Z,18.3
2019-06-10T08:59:23.041Z,18.3
2019-06-10T09:00:25.443Z,18.3
2019-06-10T09:01:24.063Z,18.4
2019-06-10T09:02:25.544Z,18.4
2019-06-10T09:03:26.839Z,18.4
2019-06-10T09:04:29.585Z,18.4
2019-06-10T09:05:29.658Z,18.4
2019-06-10T09:06:32.546Z,18.5
2019-06-10T09:07:32.469Z,18.4
2019-06-10T09:08:33.879Z,18.5
2019-06-10T09:09:35.335Z,18.6
2019-06-10T09:10:39.585Z,18.6
2019-06-10T09:11:39.319Z,18.6
2019-06-10T09:12:40.041Z,18.6
2019-06-10T09:13:43.518Z,18.7
2019-06-10T09:14:44.028Z,18.7
2019-06-10T09:15:45.408Z,18.7
2019-06-10T09:16:47.663Z,18.8
2019-06-10T09:17:49.331Z,18.8
2019-06-10T09:18:50.859Z,18.9
2019-06-10T09:19:51.033Z,19.0
2019-06-10T09:20:55.308Z,19.0
2019-06-10T09:21:55.934Z,19.0
2019-06-10T09:23:13.861Z,19.0
2019-06-10T09:23:59.834Z,19.1
2019-06-10T09:24:56.527Z,19.0
2019-06-10T09:25:57.899Z,19.0
2019-06-10T09:26:59.003Z,19.1
2019-06-10T09:28:02.240Z,19.0
2019-06-10T09:29:02.845Z,19.0
2019-06-10T09:30:03.177Z,19.0
2019-06-10T09:31:05.449Z,19.0
2019-06-10T09:32:06.054Z,19.1
2019-06-10T09:33:07.473Z,19.1
2019-06-10T09:34:08.878Z,19.2
2019-06-10T09:35:12.470Z,19.2
2019-06-10T09:36:12.529Z,19.3
2019-06-10T09:37:13.368Z,19.3
2019-06-10T09:38:14.801Z,19.4
2019-06-10T09:39:16.264Z,19.5
2019-06-10T09:40:17.793Z,19.5
2019-06-10T09:41:19.241Z,19.4
2019-06-10T09:42:23.237Z,19.4
2019-06-10T09:43:22.532Z,19.4
2019-06-10T09:44:23.604Z,19.3
2019-06-10T09:45:25.069Z,19.2
2019-06-10T09:46:26.558Z,19.3
2019-06-10T09:47:28.054Z,19.2
2019-06-10T09:48:29.492Z,19.3
2019-06-10T09:49:32.809Z,19.3
2019-06-10T09:50:33.371Z,19.2
2019-06-10T09:51:34.268Z,19.3
2019-06-10T09:52:35.241Z,19.2
2019-06-10T09:53:42.818Z,19.3
2019-06-10T09:54:38.204Z,19.3
2019-06-10T09:55:40.822Z,19.3
2019-06-10T09:56:43.707Z,19.3
2019-06-10T09:57:45.116Z,19.4
2019-06-10T09:58:46.049Z,19.4
2019-06-10T09:59:48.370Z,19.5
2019-06-10T10:00:49.380Z,19.6
2019-06-10T10:01:50.994Z,19.7
2019-06-10T10:02:52.050Z,19.8
2019-06-10T10:03:58.301Z,19.9
2019-06-10T10:04:57.868Z,19.9
2019-06-10T10:06:07.346Z,20.1
2019-06-10T10:06:57.447Z,20.3
2019-06-10T10:07:57.463Z,20.3
2019-06-10T10:08:58.714Z,20.4
2019-06-10T10:10:00.173Z,20.5
2019-06-10T10:11:01.658Z,20.5
2019-06-10T10:12:03.351Z,20.6
2019-06-10T10:13:04.820Z,20.7
2019-06-10T10:14:09.852Z,20.7
2019-06-10T10:15:22.526Z,20.7
2019-06-10T10:16:09.309Z,20.6
2019-06-10T10:17:12.679Z,20.6
2019-06-10T10:18:13.398Z,20.5
2019-06-10T10:19:13.681Z,20.5
2019-06-10T10:20:15.154Z,20.5
2019-06-10T10:21:16.608Z,20.5
2019-06-10T10:22:18.108Z,20.5
2019-06-10T10:23:19.583Z,20.5
2019-06-10T10:24:22.896Z,20.6
2019-06-10T10:25:23.545Z,20.7
2019-06-10T10:26:23.961Z,20.7
2019-06-10T10:27:25.778Z,20.7
2019-06-10T10:28:27.239Z,20.6
2019-06-10T10:29:28.715Z,20.7
2019-06-10T10:30:33.016Z,20.7
2019-06-10T10:31:32.414Z,20.7
2019-06-10T10:32:33.419Z,20.7
2019-06-10T10:33:34.432Z,20.6
2019-06-10T10:34:35.887Z,20.6
2019-06-10T10:35:37.445Z,20.7
2019-06-10T10:36:38.939Z,20.8
2019-06-10T10:37:40.381Z,20.8
2019-06-10T10:38:42.671Z,20.8
2019-06-10T10:39:44.557Z,20.9
2019-06-10T10:40:47.461Z,21.0
2019-06-10T10:41:47.132Z,21.0
2019-06-10T10:42:52.292Z,21.0
2019-06-10T10:43:51.288Z,21.0
2019-06-10T10:44:56.017Z,21.3
2019-06-10T10:45:57.452Z,21.4
2019-06-10T10:46:55.692Z,21.3
2019-06-10T10:47:56.743Z,21.6
2019-06-10T10:48:56.723Z,21.6
2019-06-10T10:49:58.113Z,21.7
2019-06-10T10:50:59.847Z,21.6
2019-06-10T10:52:02.678Z,21.6
2019-06-10T10:53:03.418Z,21.5
2019-06-10T10:54:20.863Z,21.7
2019-06-10T10:55:06.937Z,21.5
2019-06-10T10:56:07.725Z,21.6
2019-06-10T10:57:09.195Z,21.5
2019-06-10T10:58:12.747Z,21.5
2019-06-10T10:59:12.832Z,21.4
2019-06-10T11:00:13.503Z,21.4
2019-06-10T11:01:16.294Z,21.1
2019-06-10T11:02:16.399Z,21.0
2019-06-10T11:03:17.875Z,20.9
2019-06-10T11:04:19.327Z,20.7
2019-06-10T11:05:23.103Z,20.7
2019-06-10T11:06:23.091Z,20.7
2019-06-10T11:07:23.765Z,20.6
2019-06-10T11:08:25.191Z,20.5
2019-06-10T11:09:26.671Z,20.5
2019-06-10T11:10:28.152Z,20.5
2019-06-10T11:11:29.655Z,20.4
2019-06-10T11:12:33.090Z,20.4
2019-06-10T11:13:33.343Z,20.4
2019-06-10T11:14:34.188Z,20.3
2019-06-10T11:15:35.436Z,20.4
2019-06-10T11:16:37.057Z,20.3
2019-06-10T11:17:38.529Z,20.2
2019-06-10T11:18:42.090Z,20.3
2019-06-10T11:19:41.424Z,20.2
2019-06-10T11:20:42.871Z,20.1
2019-06-10T11:21:45.293Z,20.1
2019-06-10T11:22:45.804Z,20.1
2019-06-10T11:23:48.026Z,20.1
2019-06-10T11:24:49.321Z,20.3
2019-06-10T11:25:53.188Z,20.2
2019-06-10T11:26:54.540Z,20.3
2019-06-10T11:27:54.065Z,20.4
2019-06-10T11:28:55.636Z,20.6
2019-06-10T11:29:57.823Z,20.5
2019-06-10T11:30:58.526Z,20.6
2019-06-10T11:31:58.945Z,20.6
2019-06-10T11:33:02.973Z,20.7
2019-06-10T11:34:03.138Z,20.7
2019-06-10T11:35:03.052Z,20.7
2019-06-10T11:36:04.516Z,20.8
2019-06-10T11:37:05.988Z,20.8
2019-06-10T11:38:07.482Z,20.9
2019-06-10T11:39:08.902Z,20.9
2019-06-10T11:40:10.302Z,21.0
2019-06-10T11:41:13.390Z,20.9
2019-06-10T11:42:13.404Z,20.9
2019-06-10T11:43:14.624Z,20.9
2019-06-10T11:44:15.998Z,20.8
2019-06-10T11:45:17.385Z,20.8
2019-06-10T11:46:18.762Z,20.9
2019-06-10T11:47:20.155Z,20.8
2019-06-10T11:48:23.666Z,20.8
2019-06-10T11:49:23.743Z,20.8
2019-06-10T11:50:24.237Z,20.7
2019-06-10T11:51:25.620Z,20.9
2019-06-10T11:52:27.002Z,20.8
2019-06-10T11:53:28.822Z,20.9
2019-06-10T11:54:29.735Z,20.9
2019-06-10T11:55:33.318Z,20.9
2019-06-10T11:56:33.681Z,20.9
2019-06-10T11:57:33.797Z,20.9
2019-06-10T11:58:35.183Z,20.9
2019-06-10T11:59:36.566Z,20.8
2019-06-10T12:00:37.941Z,20.9
2019-06-10T12:01:39.326Z,20.8
2019-06-10T12:02:42.351Z,20.8
2019-06-10T12:03:43.003Z,20.9
2019-06-10T12:04:43.376Z,20.8
2019-06-10T12:05:44.763Z,20.8
2019-06-10T12:06:46.131Z,21.0
2019-06-10T12:07:48.785Z,21.0
2019-06-10T12:08:48.978Z,21.1
2019-06-10T12:09:51.544Z,21.2
2019-06-10T12:10:55.255Z,21.4
2019-06-10T12:11:55.110Z,21.5
2019-06-10T12:12:58.196Z,21.6
2019-06-10T12:14:00.743Z,21.7
2019-06-10T12:14:59.492Z,21.8
2019-06-10T12:18:07.973Z,22.0
2019-06-10T12:19:03.574Z,22.1
2019-06-10T12:20:03.957Z,22.1
2019-06-10T12:21:05.388Z,22.0
2019-06-10T12:22:07.587Z,21.9
2019-06-10T12:23:08.127Z,21.8
2019-06-10T12:24:09.519Z,21.8
2019-06-10T12:25:28.477Z,21.8
2019-06-10T12:26:12.253Z,21.8
2019-06-10T12:27:13.641Z,21.8
2019-06-10T12:28:15.012Z,21.8
2019-06-10T12:29:16.403Z,21.8
2019-06-10T12:30:17.791Z,21.7
2019-06-10T12:31:19.186Z,21.7
2019-06-10T12:32:22.390Z,21.7
2019-06-10T12:33:25.233Z,21.8
2019-06-10T12:34:23.258Z,21.6
2019-06-10T12:35:24.630Z,21.6
2019-06-10T12:36:26.167Z,21.6
2019-06-10T12:37:27.556Z,21.6
2019-06-10T12:38:28.919Z,21.6
2019-06-10T12:39:30.340Z,21.6
2019-06-10T12:40:31.681Z,21.6
2019-06-10T12:41:33.149Z,21.4
2019-06-10T12:42:34.402Z,21.4
2019-06-10T12:43:35.783Z,21.4
2019-06-10T12:44:37.164Z,21.3
2019-06-10T12:45:38.537Z,21.2
2019-06-10T12:46:39.923Z,21.3
2019-06-10T12:47:42.502Z,21.2
2019-06-10T12:48:42.899Z,21.2
2019-06-10T12:49:43.971Z,21.2
2019-06-10T12:50:45.352Z,21.2
2019-06-10T12:51:46.731Z,21.2
2019-06-10T12:52:48.121Z,21.2
2019-06-10T12:53:49.488Z,21.1
2019-06-10T12:54:50.861Z,21.1
2019-06-10T12:55:53.551Z,21.1
2019-06-10T12:56:54.867Z,21.1
2019-06-10T12:57:56.070Z,21.1
2019-06-10T12:58:57.644Z,21.0
2019-06-10T12:59:58.435Z,21.0
2019-06-10T13:00:59.381Z,21.0
2019-06-10T13:02:06.718Z,20.9
2019-06-10T13:03:16.587Z,20.8
2019-06-10T13:04:17.965Z,20.9
2019-06-10T13:05:19.427Z,20.8
2019-06-10T13:06:23.349Z,20.9
2019-06-10T13:07:22.637Z,20.9
2019-06-10T13:08:23.986Z,20.9
2019-06-10T13:09:25.146Z,20.9
2019-06-10T13:10:26.555Z,20.9
2019-06-10T13:11:28.071Z,20.9
2019-06-10T13:12:29.519Z,20.9
2019-06-10T13:13:32.727Z,20.9
2019-06-10T13:14:32.614Z,20.9
2019-06-10T13:15:33.658Z,20.9
2019-06-10T13:16:35.027Z,20.9
2019-06-10T13:17:36.473Z,20.8
2019-06-10T13:18:37.844Z,20.7
2019-06-10T13:19:39.212Z,20.7
2019-06-10T13:20:43.063Z,20.6
2019-06-10T13:21:42.588Z,20.6
2019-06-10T13:22:43.875Z,20.5
2019-06-10T13:23:44.706Z,20.6
2019-06-10T13:24:46.146Z,20.5
2019-06-10T13:25:54.262Z,20.5
2019-06-10T13:26:48.994Z,20.5
2019-06-10T13:27:51.838Z,20.5
2019-06-10T13:28:52.461Z,20.4
2019-06-10T13:29:53.346Z,20.5
2019-06-10T13:30:55.512Z,20.4
2019-06-10T13:31:56.197Z,20.4
2019-06-10T13:32:59.550Z,20.3
2019-06-10T13:34:04.251Z,20.3
2019-06-10T13:35:00.623Z,20.3
2019-06-10T13:36:04.728Z,20.2
2019-06-10T13:37:05.503Z,20.1
2019-06-10T13:38:06.864Z,20.1
2019-06-10T13:39:08.612Z,20.1
2019-06-10T13:40:09.822Z,20.2
2019-06-10T13:41:09.389Z,20.1